sensor_id;sensor_type;location;lat;lon;timestamp;P1;durP1;ratioP1;P2;durP2;ratioP2
54745;SDS011;40640;48.130;11.356;2023-04-16T00:01:15;7.88;;;5.15;;
54745;SDS011;40640;48.130;11.356;2023-04-16T00:05:18;12.88;;;7.32;;
54745;SDS011;40640;48.130;11.356;2023-04-16T00:09:21;18.45;;;9.00;;
54745;SDS011;40640;48.130;11.356;2023-04-16T00:13:25;17.50;;;7.78;;
54745;SDS011;40640;48.130;11.356;2023-04-16T00:17:28;72.57;;;27.63;;
54745;SDS011;40640;48.130;11.356;2023-04-16T00:21:31;128.68;;;53.03;;
54745;SDS011;40640;48.130;11.356;2023-04-16T00:25:34;32.25;;;17.17;;
54745;SDS011;40640;48.130;11.356;2023-04-16T00:29:38;49.80;;;22.90;;
54745;SDS011;40640;48.130;11.356;2023-04-16T00:33:41;32.80;;;18.15;;
54745;SDS011;40640;48.130;11.356;2023-04-16T00:37:44;13.93;;;9.35;;
54745;SDS011;40640;48.130;11.356;2023-04-16T00:41:46;14.68;;;9.55;;
54745;SDS011;40640;48.130;11.356;2023-04-16T00:45:51;8.68;;;5.60;;
54745;SDS011;40640;48.130;11.356;2023-04-16T00:49:56;6.10;;;4.47;;
54745;SDS011;40640;48.130;11.356;2023-04-16T00:53:59;5.75;;;3.92;;
54745;SDS011;40640;48.130;11.356;2023-04-16T00:58:02;4.63;;;3.53;;
54745;SDS011;40640;48.130;11.356;2023-04-16T01:02:06;5.18;;;2.80;;
54745;SDS011;40640;48.130;11.356;2023-04-16T01:06:09;2.25;;;2.05;;
54745;SDS011;40640;48.130;11.356;2023-04-16T01:10:13;3.10;;;2.35;;
54745;SDS011;40640;48.130;11.356;2023-04-16T01:14:16;6.07;;;2.70;;
54745;SDS011;40640;48.130;11.356;2023-04-16T01:18:20;3.15;;;2.40;;
54745;SDS011;40640;48.130;11.356;2023-04-16T01:22:26;3.90;;;2.80;;
54745;SDS011;40640;48.130;11.356;2023-04-16T01:26:28;4.00;;;3.00;;
54745;SDS011;40640;48.130;11.356;2023-04-16T01:30:31;5.55;;;3.20;;
54745;SDS011;40640;48.130;11.356;2023-04-16T01:34:42;5.40;;;3.58;;
54745;SDS011;40640;48.130;11.356;2023-04-16T01:38:46;3.70;;;3.00;;
54745;SDS011;40640;48.130;11.356;2023-04-16T01:42:49;3.92;;;3.00;;
54745;SDS011;40640;48.130;11.356;2023-04-16T01:46:52;4.85;;;3.22;;
54745;SDS011;40640;48.130;11.356;2023-04-16T01:50:56;4.38;;;3.47;;
54745;SDS011;40640;48.130;11.356;2023-04-16T01:55:02;4.63;;;3.78;;
54745;SDS011;40640;48.130;11.356;2023-04-16T01:59:05;4.47;;;3.85;;
54745;SDS011;40640;48.130;11.356;2023-04-16T02:03:12;4.20;;;3.80;;
54745;SDS011;40640;48.130;11.356;2023-04-16T02:07:18;5.85;;;4.00;;
54745;SDS011;40640;48.130;11.356;2023-04-16T02:11:22;8.40;;;5.18;;
54745;SDS011;40640;48.130;11.356;2023-04-16T02:15:24;5.78;;;4.53;;
54745;SDS011;40640;48.130;11.356;2023-04-16T02:19:28;8.20;;;5.30;;
54745;SDS011;40640;48.130;11.356;2023-04-16T02:23:30;8.52;;;5.10;;
54745;SDS011;40640;48.130;11.356;2023-04-16T02:27:35;8.18;;;5.25;;
54745;SDS011;40640;48.130;11.356;2023-04-16T02:31:53;6.82;;;4.75;;
54745;SDS011;40640;48.130;11.356;2023-04-16T02:35:57;6.80;;;4.60;;
54745;SDS011;40640;48.130;11.356;2023-04-16T02:40:00;7.07;;;4.07;;
54745;SDS011;40640;48.130;11.356;2023-04-16T02:44:04;6.43;;;4.20;;
54745;SDS011;40640;48.130;11.356;2023-04-16T02:48:07;6.32;;;4.05;;
54745;SDS011;40640;48.130;11.356;2023-04-16T02:52:10;5.70;;;4.20;;
54745;SDS011;40640;48.130;11.356;2023-04-16T02:56:15;4.85;;;3.65;;
54745;SDS011;40640;48.130;11.356;2023-04-16T03:00:20;4.80;;;3.65;;
54745;SDS011;40640;48.130;11.356;2023-04-16T03:04:23;5.95;;;4.00;;
54745;SDS011;40640;48.130;11.356;2023-04-16T03:08:26;5.40;;;3.33;;
54745;SDS011;40640;48.130;11.356;2023-04-16T03:12:29;5.03;;;3.95;;
54745;SDS011;40640;48.130;11.356;2023-04-16T03:16:33;5.07;;;3.38;;
54745;SDS011;40640;48.130;11.356;2023-04-16T03:20:36;5.63;;;3.75;;
54745;SDS011;40640;48.130;11.356;2023-04-16T03:24:39;6.57;;;3.95;;
54745;SDS011;40640;48.130;11.356;2023-04-16T03:28:42;5.45;;;3.97;;
54745;SDS011;40640;48.130;11.356;2023-04-16T03:32:47;7.55;;;4.72;;
54745;SDS011;40640;48.130;11.356;2023-04-16T03:36:50;6.53;;;3.97;;
54745;SDS011;40640;48.130;11.356;2023-04-16T03:40:52;7.03;;;5.05;;
54745;SDS011;40640;48.130;11.356;2023-04-16T03:44:55;6.57;;;4.85;;
54745;SDS011;40640;48.130;11.356;2023-04-16T03:49:00;6.88;;;4.97;;
54745;SDS011;40640;48.130;11.356;2023-04-16T03:53:03;7.65;;;4.95;;
54745;SDS011;40640;48.130;11.356;2023-04-16T03:57:06;7.78;;;4.90;;
54745;SDS011;40640;48.130;11.356;2023-04-16T04:01:09;7.47;;;5.10;;
54745;SDS011;40640;48.130;11.356;2023-04-16T04:05:14;6.75;;;5.03;;
54745;SDS011;40640;48.130;11.356;2023-04-16T04:09:18;8.95;;;5.30;;
54745;SDS011;40640;48.130;11.356;2023-04-16T04:13:21;6.60;;;5.15;;
54745;SDS011;40640;48.130;11.356;2023-04-16T04:17:25;6.65;;;4.60;;
54745;SDS011;40640;48.130;11.356;2023-04-16T04:21:30;7.43;;;4.97;;
54745;SDS011;40640;48.130;11.356;2023-04-16T04:25:33;6.65;;;4.60;;
54745;SDS011;40640;48.130;11.356;2023-04-16T04:29:36;6.85;;;4.60;;
54745;SDS011;40640;48.130;11.356;2023-04-16T04:33:39;5.18;;;3.83;;
54745;SDS011;40640;48.130;11.356;2023-04-16T04:37:43;6.53;;;4.50;;
54745;SDS011;40640;48.130;11.356;2023-04-16T04:41:51;5.38;;;4.65;;
54745;SDS011;40640;48.130;11.356;2023-04-16T04:45:54;6.32;;;4.80;;
54745;SDS011;40640;48.130;11.356;2023-04-16T04:50:00;6.40;;;4.53;;
54745;SDS011;40640;48.130;11.356;2023-04-16T04:54:07;6.97;;;4.85;;
54745;SDS011;40640;48.130;11.356;2023-04-16T04:58:10;6.90;;;5.03;;
54745;SDS011;40640;48.130;11.356;2023-04-16T05:02:15;6.18;;;4.20;;
54745;SDS011;40640;48.130;11.356;2023-04-16T05:06:18;5.43;;;4.03;;
54745;SDS011;40640;48.130;11.356;2023-04-16T05:10:22;5.53;;;4.32;;
54745;SDS011;40640;48.130;11.356;2023-04-16T05:14:25;4.85;;;3.67;;
54745;SDS011;40640;48.130;11.356;2023-04-16T05:18:28;5.07;;;3.63;;
54745;SDS011;40640;48.130;11.356;2023-04-16T05:22:31;3.90;;;3.28;;
54745;SDS011;40640;48.130;11.356;2023-04-16T05:26:35;4.18;;;3.60;;
54745;SDS011;40640;48.130;11.356;2023-04-16T05:30:38;3.92;;;3.10;;
54745;SDS011;40640;48.130;11.356;2023-04-16T05:34:41;4.22;;;3.28;;
54745;SDS011;40640;48.130;11.356;2023-04-16T05:38:44;3.28;;;2.60;;
54745;SDS011;40640;48.130;11.356;2023-04-16T05:42:48;4.35;;;3.00;;
54745;SDS011;40640;48.130;11.356;2023-04-16T05:46:51;2.70;;;2.30;;
54745;SDS011;40640;48.130;11.356;2023-04-16T05:50:54;1.95;;;1.83;;
54745;SDS011;40640;48.130;11.356;2023-04-16T05:54:56;1.83;;;1.67;;
54745;SDS011;40640;48.130;11.356;2023-04-16T05:59:03;1.92;;;1.60;;
54745;SDS011;40640;48.130;11.356;2023-04-16T06:03:06;1.90;;;1.40;;
54745;SDS011;40640;48.130;11.356;2023-04-16T06:07:09;1.40;;;1.30;;
54745;SDS011;40640;48.130;11.356;2023-04-16T06:11:12;1.40;;;1.30;;
54745;SDS011;40640;48.130;11.356;2023-04-16T06:15:16;2.05;;;1.50;;
54745;SDS011;40640;48.130;11.356;2023-04-16T06:19:19;1.63;;;1.20;;
54745;SDS011;40640;48.130;11.356;2023-04-16T06:23:22;1.10;;;1.00;;
54745;SDS011;40640;48.130;11.356;2023-04-16T06:27:24;2.60;;;1.48;;
54745;SDS011;40640;48.130;11.356;2023-04-16T06:31:29;2.80;;;2.00;;
54745;SDS011;40640;48.130;11.356;2023-04-16T06:35:32;1.38;;;1.20;;
54745;SDS011;40640;48.130;11.356;2023-04-16T06:39:36;0.95;;;0.80;;
54745;SDS011;40640;48.130;11.356;2023-04-16T06:43:38;1.08;;;0.60;;
54745;SDS011;40640;48.130;11.356;2023-04-16T06:47:43;1.17;;;0.75;;
54745;SDS011;40640;48.130;11.356;2023-04-16T06:51:46;0.77;;;0.77;;
54745;SDS011;40640;48.130;11.356;2023-04-16T06:55:49;1.48;;;1.30;;
54745;SDS011;40640;48.130;11.356;2023-04-16T06:59:52;1.20;;;1.10;;
54745;SDS011;40640;48.130;11.356;2023-04-16T07:03:56;0.30;;;0.30;;
54745;SDS011;40640;48.130;11.356;2023-04-16T07:07:59;0.60;;;0.60;;
54745;SDS011;40640;48.130;11.356;2023-04-16T07:12:02;0.50;;;0.50;;
54745;SDS011;40640;48.130;11.356;2023-04-16T07:16:05;1.65;;;0.50;;
54745;SDS011;40640;48.130;11.356;2023-04-16T07:20:10;0.60;;;0.50;;
54745;SDS011;40640;48.130;11.356;2023-04-16T07:24:13;0.32;;;0.30;;
54745;SDS011;40640;48.130;11.356;2023-04-16T07:28:16;1.17;;;0.80;;
54745;SDS011;40640;48.130;11.356;2023-04-16T07:32:20;0.70;;;0.43;;
54745;SDS011;40640;48.130;11.356;2023-04-16T07:36:25;0.52;;;0.32;;
54745;SDS011;40640;48.130;11.356;2023-04-16T07:40:28;1.27;;;0.90;;
54745;SDS011;40640;48.130;11.356;2023-04-16T07:44:31;0.63;;;0.45;;
54745;SDS011;40640;48.130;11.356;2023-04-16T07:48:34;1.17;;;0.70;;
54745;SDS011;40640;48.130;11.356;2023-04-16T07:52:38;0.90;;;0.70;;
54745;SDS011;40640;48.130;11.356;2023-04-16T07:56:42;0.75;;;0.60;;
54745;SDS011;40640;48.130;11.356;2023-04-16T08:00:45;0.65;;;0.55;;
54745;SDS011;40640;48.130;11.356;2023-04-16T08:04:50;0.40;;;0.40;;
54745;SDS011;40640;48.130;11.356;2023-04-16T08:08:55;1.08;;;0.80;;
54745;SDS011;40640;48.130;11.356;2023-04-16T08:12:58;0.47;;;0.35;;
54745;SDS011;40640;48.130;11.356;2023-04-16T08:17:01;1.13;;;0.77;;
54745;SDS011;40640;48.130;11.356;2023-04-16T08:21:04;1.38;;;0.38;;
54745;SDS011;40640;48.130;11.356;2023-04-16T08:25:09;8.60;;;4.93;;
54745;SDS011;40640;48.130;11.356;2023-04-16T08:29:12;3.60;;;2.20;;
54745;SDS011;40640;48.130;11.356;2023-04-16T08:33:15;0.40;;;0.40;;
54745;SDS011;40640;48.130;11.356;2023-04-16T08:37:17;0.30;;;0.30;;
54745;SDS011;40640;48.130;11.356;2023-04-16T08:41:22;0.55;;;0.43;;
54745;SDS011;40640;48.130;11.356;2023-04-16T08:45:26;0.90;;;0.70;;
54745;SDS011;40640;48.130;11.356;2023-04-16T08:49:29;2.08;;;1.10;;
54745;SDS011;40640;48.130;11.356;2023-04-16T08:53:41;0.85;;;0.63;;
54745;SDS011;40640;48.130;11.356;2023-04-16T08:57:51;0.40;;;0.40;;
54745;SDS011;40640;48.130;11.356;2023-04-16T09:01:58;0.52;;;0.40;;
54745;SDS011;40640;48.130;11.356;2023-04-16T09:06:02;1.38;;;0.50;;
54745;SDS011;40640;48.130;11.356;2023-04-16T09:10:06;4.05;;;3.17;;
54745;SDS011;40640;48.130;11.356;2023-04-16T09:14:12;3.05;;;2.25;;
54745;SDS011;40640;48.130;11.356;2023-04-16T09:18:15;1.02;;;0.90;;
54745;SDS011;40640;48.130;11.356;2023-04-16T09:22:18;1.75;;;1.05;;
54745;SDS011;40640;48.130;11.356;2023-04-16T09:26:21;0.55;;;0.55;;
54745;SDS011;40640;48.130;11.356;2023-04-16T09:30:25;0.75;;;0.60;;
54745;SDS011;40640;48.130;11.356;2023-04-16T09:34:29;0.40;;;0.40;;
54745;SDS011;40640;48.130;11.356;2023-04-16T09:38:46;0.43;;;0.40;;
54745;SDS011;40640;48.130;11.356;2023-04-16T09:42:50;0.73;;;0.60;;
54745;SDS011;40640;48.130;11.356;2023-04-16T09:46:56;0.40;;;0.38;;
54745;SDS011;40640;48.130;11.356;2023-04-16T09:51:07;0.30;;;0.30;;
54745;SDS011;40640;48.130;11.356;2023-04-16T09:55:10;0.65;;;0.65;;
54745;SDS011;40640;48.130;11.356;2023-04-16T09:59:15;0.60;;;0.60;;
54745;SDS011;40640;48.130;11.356;2023-04-16T10:03:20;0.70;;;0.55;;
54745;SDS011;40640;48.130;11.356;2023-04-16T10:07:32;0.47;;;0.40;;
54745;SDS011;40640;48.130;11.356;2023-04-16T10:11:36;2.70;;;0.52;;
54745;SDS011;40640;48.130;11.356;2023-04-16T10:15:39;0.65;;;0.60;;
54745;SDS011;40640;48.130;11.356;2023-04-16T10:19:43;0.43;;;0.40;;
54745;SDS011;40640;48.130;11.356;2023-04-16T10:23:47;0.63;;;0.63;;
54745;SDS011;40640;48.130;11.356;2023-04-16T10:27:51;0.68;;;0.47;;
54745;SDS011;40640;48.130;11.356;2023-04-16T10:31:54;1.10;;;0.40;;
54745;SDS011;40640;48.130;11.356;2023-04-16T10:36:09;0.38;;;0.38;;
54745;SDS011;40640;48.130;11.356;2023-04-16T10:40:22;0.60;;;0.60;;
54745;SDS011;40640;48.130;11.356;2023-04-16T10:44:26;3.05;;;0.70;;
54745;SDS011;40640;48.130;11.356;2023-04-16T10:48:34;0.75;;;0.50;;
54745;SDS011;40640;48.130;11.356;2023-04-16T10:53:01;1.00;;;0.60;;
54745;SDS011;40640;48.130;11.356;2023-04-16T10:57:19;0.80;;;0.68;;
54745;SDS011;40640;48.130;11.356;2023-04-16T11:01:28;0.70;;;0.50;;
54745;SDS011;40640;48.130;11.356;2023-04-16T11:05:43;0.45;;;0.22;;
54745;SDS011;40640;48.130;11.356;2023-04-16T11:09:53;0.55;;;0.55;;
54745;SDS011;40640;48.130;11.356;2023-04-16T11:13:58;0.52;;;0.50;;
54745;SDS011;40640;48.130;11.356;2023-04-16T11:18:01;0.40;;;0.40;;
54745;SDS011;40640;48.130;11.356;2023-04-16T11:22:04;3.42;;;0.63;;
54745;SDS011;40640;48.130;11.356;2023-04-16T11:26:19;0.60;;;0.40;;
54745;SDS011;40640;48.130;11.356;2023-04-16T11:30:29;0.68;;;0.35;;
54745;SDS011;40640;48.130;11.356;2023-04-16T11:34:41;0.60;;;0.60;;
54745;SDS011;40640;48.130;11.356;2023-04-16T11:38:45;0.40;;;0.30;;
54745;SDS011;40640;48.130;11.356;2023-04-16T11:42:50;0.35;;;0.32;;
54745;SDS011;40640;48.130;11.356;2023-04-16T11:46:52;0.85;;;0.50;;
54745;SDS011;40640;48.130;11.356;2023-04-16T11:50:55;0.50;;;0.50;;
54745;SDS011;40640;48.130;11.356;2023-04-16T11:54:59;0.82;;;0.63;;
54745;SDS011;40640;48.130;11.356;2023-04-16T11:59:09;1.10;;;0.63;;
54745;SDS011;40640;48.130;11.356;2023-04-16T12:03:15;2.58;;;0.43;;
54745;SDS011;40640;48.130;11.356;2023-04-16T12:07:18;0.28;;;0.28;;
54745;SDS011;40640;48.130;11.356;2023-04-16T12:11:21;0.50;;;0.50;;
54745;SDS011;40640;48.130;11.356;2023-04-16T12:15:46;1.35;;;0.93;;
54745;SDS011;40640;48.130;11.356;2023-04-16T12:19:50;0.65;;;0.60;;
54745;SDS011;40640;48.130;11.356;2023-04-16T12:23:54;0.77;;;0.50;;
54745;SDS011;40640;48.130;11.356;2023-04-16T12:27:57;0.50;;;0.50;;
54745;SDS011;40640;48.130;11.356;2023-04-16T12:32:01;1.58;;;1.08;;
54745;SDS011;40640;48.130;11.356;2023-04-16T12:36:15;0.50;;;0.40;;
54745;SDS011;40640;48.130;11.356;2023-04-16T12:40:19;0.82;;;0.70;;
54745;SDS011;40640;48.130;11.356;2023-04-16T12:44:21;0.40;;;0.40;;
54745;SDS011;40640;48.130;11.356;2023-04-16T12:48:26;1.45;;;0.70;;
54745;SDS011;40640;48.130;11.356;2023-04-16T12:52:29;1.33;;;1.15;;
54745;SDS011;40640;48.130;11.356;2023-04-16T12:56:32;2.85;;;0.57;;
54745;SDS011;40640;48.130;11.356;2023-04-16T13:00:35;1.10;;;1.00;;
54745;SDS011;40640;48.130;11.356;2023-04-16T13:04:39;0.73;;;0.70;;
54745;SDS011;40640;48.130;11.356;2023-04-16T13:08:43;1.15;;;0.75;;
54745;SDS011;40640;48.130;11.356;2023-04-16T13:12:46;0.60;;;0.40;;
54745;SDS011;40640;48.130;11.356;2023-04-16T13:16:49;0.52;;;0.52;;
54745;SDS011;40640;48.130;11.356;2023-04-16T13:20:53;0.55;;;0.55;;
54745;SDS011;40640;48.130;11.356;2023-04-16T13:24:56;0.68;;;0.45;;
54745;SDS011;40640;48.130;11.356;2023-04-16T13:28:59;0.55;;;0.55;;
54745;SDS011;40640;48.130;11.356;2023-04-16T13:33:02;1.33;;;0.80;;
54745;SDS011;40640;48.130;11.356;2023-04-16T13:37:06;0.85;;;0.80;;
54745;SDS011;40640;48.130;11.356;2023-04-16T13:41:09;2.72;;;0.90;;
54745;SDS011;40640;48.130;11.356;2023-04-16T13:45:12;3.47;;;2.00;;
54745;SDS011;40640;48.130;11.356;2023-04-16T13:49:15;1.73;;;0.77;;
54745;SDS011;40640;48.130;11.356;2023-04-16T13:53:19;1.00;;;0.80;;
54745;SDS011;40640;48.130;11.356;2023-04-16T13:57:22;0.60;;;0.60;;
54745;SDS011;40640;48.130;11.356;2023-04-16T14:01:25;0.60;;;0.60;;
54745;SDS011;40640;48.130;11.356;2023-04-16T14:05:28;0.50;;;0.50;;
54745;SDS011;40640;48.130;11.356;2023-04-16T14:09:32;0.50;;;0.47;;
54745;SDS011;40640;48.130;11.356;2023-04-16T14:13:35;1.83;;;1.30;;
54745;SDS011;40640;48.130;11.356;2023-04-16T14:17:38;1.67;;;0.70;;
54745;SDS011;40640;48.130;11.356;2023-04-16T14:21:41;2.38;;;0.68;;
54745;SDS011;40640;48.130;11.356;2023-04-16T14:25:45;8.07;;;2.67;;
54745;SDS011;40640;48.130;11.356;2023-04-16T14:29:48;1.42;;;1.05;;
54745;SDS011;40640;48.130;11.356;2023-04-16T14:33:51;4.68;;;1.88;;
54745;SDS011;40640;48.130;11.356;2023-04-16T14:37:54;0.70;;;0.70;;
54745;SDS011;40640;48.130;11.356;2023-04-16T14:41:58;1.13;;;0.90;;
54745;SDS011;40640;48.130;11.356;2023-04-16T14:46:01;1.90;;;1.35;;
54745;SDS011;40640;48.130;11.356;2023-04-16T14:50:08;1.80;;;1.35;;
54745;SDS011;40640;48.130;11.356;2023-04-16T14:54:11;0.93;;;0.73;;
54745;SDS011;40640;48.130;11.356;2023-04-16T14:58:15;1.63;;;0.68;;
54745;SDS011;40640;48.130;11.356;2023-04-16T15:02:18;0.73;;;0.60;;
54745;SDS011;40640;48.130;11.356;2023-04-16T15:06:21;1.08;;;0.98;;
54745;SDS011;40640;48.130;11.356;2023-04-16T15:10:24;2.30;;;1.40;;
54745;SDS011;40640;48.130;11.356;2023-04-16T15:14:29;2.65;;;1.15;;
54745;SDS011;40640;48.130;11.356;2023-04-16T15:18:32;3.45;;;1.77;;
54745;SDS011;40640;48.130;11.356;2023-04-16T15:22:35;1.85;;;1.10;;
54745;SDS011;40640;48.130;11.356;2023-04-16T15:26:38;1.70;;;1.02;;
54745;SDS011;40640;48.130;11.356;2023-04-16T15:30:42;2.25;;;1.17;;
54745;SDS011;40640;48.130;11.356;2023-04-16T15:34:45;2.45;;;1.95;;
54745;SDS011;40640;48.130;11.356;2023-04-16T15:38:48;2.30;;;1.77;;
54745;SDS011;40640;48.130;11.356;2023-04-16T15:42:51;4.50;;;2.03;;
54745;SDS011;40640;48.130;11.356;2023-04-16T15:46:55;14.38;;;2.13;;
54745;SDS011;40640;48.130;11.356;2023-04-16T15:50:58;2.25;;;1.48;;
54745;SDS011;40640;48.130;11.356;2023-04-16T15:55:01;1.15;;;1.02;;
54745;SDS011;40640;48.130;11.356;2023-04-16T15:59:04;2.47;;;1.20;;
54745;SDS011;40640;48.130;11.356;2023-04-16T16:03:09;5.38;;;2.88;;
54745;SDS011;40640;48.130;11.356;2023-04-16T16:07:12;1.60;;;1.10;;
54745;SDS011;40640;48.130;11.356;2023-04-16T16:11:20;0.63;;;0.63;;
54745;SDS011;40640;48.130;11.356;2023-04-16T16:15:23;0.50;;;0.50;;
54745;SDS011;40640;48.130;11.356;2023-04-16T16:19:27;1.40;;;0.68;;
54745;SDS011;40640;48.130;11.356;2023-04-16T16:23:30;2.75;;;1.70;;
54745;SDS011;40640;48.130;11.356;2023-04-16T16:27:33;3.35;;;0.98;;
54745;SDS011;40640;48.130;11.356;2023-04-16T16:31:36;2.75;;;1.02;;
54745;SDS011;40640;48.130;11.356;2023-04-16T16:35:40;1.05;;;0.90;;
54745;SDS011;40640;48.130;11.356;2023-04-16T16:39:43;0.63;;;0.57;;
54745;SDS011;40640;48.130;11.356;2023-04-16T16:43:46;4.75;;;1.38;;
54745;SDS011;40640;48.130;11.356;2023-04-16T16:47:50;1.90;;;0.90;;
54745;SDS011;40640;48.130;11.356;2023-04-16T16:51:54;1.73;;;0.88;;
54745;SDS011;40640;48.130;11.356;2023-04-16T16:55:57;2.38;;;1.58;;
54745;SDS011;40640;48.130;11.356;2023-04-16T17:00:00;1.55;;;1.33;;
54745;SDS011;40640;48.130;11.356;2023-04-16T17:04:08;1.00;;;0.90;;
54745;SDS011;40640;48.130;11.356;2023-04-16T17:08:12;0.82;;;0.82;;
54745;SDS011;40640;48.130;11.356;2023-04-16T17:12:15;0.98;;;0.82;;
54745;SDS011;40640;48.130;11.356;2023-04-16T17:16:18;1.42;;;1.13;;
54745;SDS011;40640;48.130;11.356;2023-04-16T17:20:21;1.30;;;1.02;;
54745;SDS011;40640;48.130;11.356;2023-04-16T17:24:25;1.13;;;0.98;;
54745;SDS011;40640;48.130;11.356;2023-04-16T17:28:28;1.60;;;1.10;;
54745;SDS011;40640;48.130;11.356;2023-04-16T17:32:31;1.40;;;1.10;;
54745;SDS011;40640;48.130;11.356;2023-04-16T17:36:34;1.38;;;1.05;;
54745;SDS011;40640;48.130;11.356;2023-04-16T17:40:38;2.03;;;1.23;;
54745;SDS011;40640;48.130;11.356;2023-04-16T17:44:41;1.25;;;1.00;;
54745;SDS011;40640;48.130;11.356;2023-04-16T17:48:44;2.22;;;1.60;;
54745;SDS011;40640;48.130;11.356;2023-04-16T17:52:49;2.30;;;1.10;;
54745;SDS011;40640;48.130;11.356;2023-04-16T17:56:53;1.48;;;0.95;;
54745;SDS011;40640;48.130;11.356;2023-04-16T18:00:56;1.13;;;1.02;;
54745;SDS011;40640;48.130;11.356;2023-04-16T18:04:58;1.63;;;1.38;;
54745;SDS011;40640;48.130;11.356;2023-04-16T18:09:01;19.80;;;15.20;;
54745;SDS011;40640;48.130;11.356;2023-04-16T18:13:07;4.40;;;3.67;;
54745;SDS011;40640;48.130;11.356;2023-04-16T18:17:10;5.88;;;2.40;;
54745;SDS011;40640;48.130;11.356;2023-04-16T18:21:13;2.80;;;2.10;;
54745;SDS011;40640;48.130;11.356;2023-04-16T18:25:16;2.30;;;1.95;;
54745;SDS011;40640;48.130;11.356;2023-04-16T18:29:33;3.47;;;2.72;;
54745;SDS011;40640;48.130;11.356;2023-04-16T18:33:40;1.73;;;1.40;;
54745;SDS011;40640;48.130;11.356;2023-04-16T18:37:46;1.27;;;1.15;;
54745;SDS011;40640;48.130;11.356;2023-04-16T18:41:48;1.67;;;1.35;;
54745;SDS011;40640;48.130;11.356;2023-04-16T18:45:53;6.90;;;3.35;;
54745;SDS011;40640;48.130;11.356;2023-04-16T18:49:56;7.78;;;2.97;;
54745;SDS011;40640;48.130;11.356;2023-04-16T18:53:59;5.45;;;2.10;;
54745;SDS011;40640;48.130;11.356;2023-04-16T18:58:01;3.30;;;2.05;;
54745;SDS011;40640;48.130;11.356;2023-04-16T19:02:06;3.15;;;2.17;;
54745;SDS011;40640;48.130;11.356;2023-04-16T19:06:09;2.75;;;1.77;;
54745;SDS011;40640;48.130;11.356;2023-04-16T19:10:11;3.00;;;1.70;;
54745;SDS011;40640;48.130;11.356;2023-04-16T19:14:14;4.28;;;3.10;;
54745;SDS011;40640;48.130;11.356;2023-04-16T19:18:19;2.65;;;2.15;;
54745;SDS011;40640;48.130;11.356;2023-04-16T19:22:21;4.13;;;3.00;;
54745;SDS011;40640;48.130;11.356;2023-04-16T19:26:24;6.95;;;2.95;;
54745;SDS011;40640;48.130;11.356;2023-04-16T19:30:28;2.65;;;2.13;;
54745;SDS011;40640;48.130;11.356;2023-04-16T19:34:32;2.97;;;2.00;;
54745;SDS011;40640;48.130;11.356;2023-04-16T19:38:35;4.35;;;1.92;;
54745;SDS011;40640;48.130;11.356;2023-04-16T19:42:38;2.95;;;2.10;;
54745;SDS011;40640;48.130;11.356;2023-04-16T19:46:41;3.70;;;2.33;;
54745;SDS011;40640;48.130;11.356;2023-04-16T19:50:45;6.03;;;3.30;;
54745;SDS011;40640;48.130;11.356;2023-04-16T19:54:48;4.00;;;3.10;;
54745;SDS011;40640;48.130;11.356;2023-04-16T19:58:51;6.00;;;3.15;;
54745;SDS011;40640;48.130;11.356;2023-04-16T20:02:54;4.07;;;2.95;;
54745;SDS011;40640;48.130;11.356;2023-04-16T20:06:58;6.57;;;2.97;;
54745;SDS011;40640;48.130;11.356;2023-04-16T20:11:01;5.00;;;2.58;;
54745;SDS011;40640;48.130;11.356;2023-04-16T20:15:04;3.67;;;2.47;;
54745;SDS011;40640;48.130;11.356;2023-04-16T20:19:08;3.65;;;2.47;;
54745;SDS011;40640;48.130;11.356;2023-04-16T20:23:12;3.92;;;2.10;;
54745;SDS011;40640;48.130;11.356;2023-04-16T20:27:15;2.33;;;1.88;;
54745;SDS011;40640;48.130;11.356;2023-04-16T20:31:19;3.00;;;2.10;;
54745;SDS011;40640;48.130;11.356;2023-04-16T20:35:22;4.32;;;2.33;;
54745;SDS011;40640;48.130;11.356;2023-04-16T20:39:26;8.57;;;2.28;;
54745;SDS011;40640;48.130;11.356;2023-04-16T20:43:31;3.88;;;2.53;;
54745;SDS011;40640;48.130;11.356;2023-04-16T20:47:38;2.10;;;1.90;;
54745;SDS011;40640;48.130;11.356;2023-04-16T20:51:43;3.47;;;2.10;;
54745;SDS011;40640;48.130;11.356;2023-04-16T20:55:47;4.72;;;2.42;;
54745;SDS011;40640;48.130;11.356;2023-04-16T20:59:50;3.33;;;2.50;;
54745;SDS011;40640;48.130;11.356;2023-04-16T21:03:53;2.65;;;2.03;;
54745;SDS011;40640;48.130;11.356;2023-04-16T21:07:56;5.90;;;2.55;;
54745;SDS011;40640;48.130;11.356;2023-04-16T21:12:00;3.28;;;2.45;;
54745;SDS011;40640;48.130;11.356;2023-04-16T21:16:03;3.55;;;3.20;;
54745;SDS011;40640;48.130;11.356;2023-04-16T21:20:08;4.28;;;2.63;;
54745;SDS011;40640;48.130;11.356;2023-04-16T21:24:13;3.63;;;2.47;;
54745;SDS011;40640;48.130;11.356;2023-04-16T21:28:17;3.50;;;2.40;;
54745;SDS011;40640;48.130;11.356;2023-04-16T21:32:20;2.60;;;2.35;;
54745;SDS011;40640;48.130;11.356;2023-04-16T21:36:23;3.10;;;2.30;;
54745;SDS011;40640;48.130;11.356;2023-04-16T21:40:27;4.82;;;2.50;;
54745;SDS011;40640;48.130;11.356;2023-04-16T21:44:31;2.67;;;2.30;;
54745;SDS011;40640;48.130;11.356;2023-04-16T21:48:34;2.92;;;2.30;;
54745;SDS011;40640;48.130;11.356;2023-04-16T21:52:37;2.78;;;2.20;;
54745;SDS011;40640;48.130;11.356;2023-04-16T21:56:41;4.00;;;2.80;;
54745;SDS011;40640;48.130;11.356;2023-04-16T22:00:45;3.35;;;1.95;;
54745;SDS011;40640;48.130;11.356;2023-04-16T22:04:48;2.28;;;1.90;;
54745;SDS011;40640;48.130;11.356;2023-04-16T22:08:51;2.63;;;2.22;;
54745;SDS011;40640;48.130;11.356;2023-04-16T22:12:53;6.72;;;3.47;;
54745;SDS011;40640;48.130;11.356;2023-04-16T22:16:58;4.45;;;2.03;;
54745;SDS011;40640;48.130;11.356;2023-04-16T22:21:00;2.53;;;2.22;;
54745;SDS011;40640;48.130;11.356;2023-04-16T22:25:04;3.17;;;2.03;;
54745;SDS011;40640;48.130;11.356;2023-04-16T22:29:07;2.08;;;1.77;;
54745;SDS011;40640;48.130;11.356;2023-04-16T22:33:12;4.30;;;2.05;;
54745;SDS011;40640;48.130;11.356;2023-04-16T22:37:15;5.35;;;2.70;;
54745;SDS011;40640;48.130;11.356;2023-04-16T22:41:18;2.67;;;2.17;;
54745;SDS011;40640;48.130;11.356;2023-04-16T22:45:21;2.58;;;1.60;;
54745;SDS011;40640;48.130;11.356;2023-04-16T22:49:25;2.28;;;2.03;;
54745;SDS011;40640;48.130;11.356;2023-04-16T22:53:33;2.65;;;2.20;;
54745;SDS011;40640;48.130;11.356;2023-04-16T22:57:36;4.82;;;2.92;;
54745;SDS011;40640;48.130;11.356;2023-04-16T23:01:39;5.13;;;3.38;;
54745;SDS011;40640;48.130;11.356;2023-04-16T23:05:44;3.90;;;3.00;;
54745;SDS011;40640;48.130;11.356;2023-04-16T23:09:47;2.72;;;1.98;;
54745;SDS011;40640;48.130;11.356;2023-04-16T23:13:49;2.63;;;2.17;;
54745;SDS011;40640;48.130;11.356;2023-04-16T23:17:52;4.68;;;1.95;;
54745;SDS011;40640;48.130;11.356;2023-04-16T23:21:57;2.10;;;1.90;;
54745;SDS011;40640;48.130;11.356;2023-04-16T23:26:00;2.83;;;2.08;;
54745;SDS011;40640;48.130;11.356;2023-04-16T23:30:03;2.30;;;2.08;;
54745;SDS011;40640;48.130;11.356;2023-04-16T23:34:07;3.20;;;1.95;;
54745;SDS011;40640;48.130;11.356;2023-04-16T23:38:11;1.73;;;1.55;;
54745;SDS011;40640;48.130;11.356;2023-04-16T23:42:14;6.68;;;2.00;;
54745;SDS011;40640;48.130;11.356;2023-04-16T23:46:17;2.35;;;1.67;;
54745;SDS011;40640;48.130;11.356;2023-04-16T23:50:20;2.50;;;2.10;;
54745;SDS011;40640;48.130;11.356;2023-04-16T23:54:24;2.70;;;1.83;;
54745;SDS011;40640;48.130;11.356;2023-04-16T23:58:27;5.30;;;3.28;;
